createdAt,value
2018-09-04T00:00:34.865Z,84.53
2018-09-04T00:01:34.889Z,84.72
2018-09-04T00:02:34.924Z,84.72
2018-09-04T00:03:34.949Z,84.62
2018-09-04T00:04:34.990Z,85.10
2018-09-04T00:05:35.014Z,84.62
2018-09-04T00:06:35.046Z,84.81
2018-09-04T00:07:35.075Z,84.91
2018-09-04T00:08:35.109Z,84.62
2018-09-04T00:09:35.138Z,84.62
2018-09-04T00:10:35.170Z,84.53
2018-09-04T00:11:35.202Z,84.62
2018-09-04T00:12:35.252Z,84.72
2018-09-04T00:13:35.266Z,85.10
2018-09-04T00:14:35.290Z,85.00
2018-09-04T00:15:35.326Z,85.49
2018-09-04T00:16:35.383Z,85.30
2018-09-04T00:17:35.392Z,85.39
2018-09-04T00:18:35.418Z,85.49
2018-09-04T00:19:35.446Z,84.72
2018-09-04T00:20:35.478Z,84.62
2018-09-04T00:21:35.511Z,85.20
2018-09-04T00:22:35.542Z,84.91
2018-09-04T00:23:35.578Z,84.62
2018-09-04T00:24:35.607Z,84.72
2018-09-04T00:25:35.636Z,84.81
2018-09-04T00:26:35.664Z,84.81
2018-09-04T00:27:35.696Z,85.00
2018-09-04T00:28:35.728Z,84.81
2018-09-04T00:29:35.760Z,85.39
2018-09-04T00:30:35.792Z,85.68
2018-09-04T00:31:35.820Z,85.20
2018-09-04T00:32:35.849Z,85.30
2018-09-04T00:33:35.890Z,85.58
2018-09-04T00:34:35.909Z,84.91
2018-09-04T00:35:35.952Z,85.68
2018-09-04T00:36:35.977Z,85.00
2018-09-04T00:37:36.006Z,84.72
2018-09-04T00:38:36.041Z,84.91
2018-09-04T00:39:36.066Z,84.81
2018-09-04T00:40:36.109Z,84.81
2018-09-04T00:41:36.126Z,84.81
2018-09-04T00:42:36.168Z,84.81
2018-09-04T00:43:36.192Z,84.81
2018-09-04T00:44:36.225Z,84.72
2018-09-04T00:45:36.254Z,84.91
2018-09-04T00:46:36.461Z,84.43
2018-09-04T00:47:36.317Z,84.43
2018-09-04T00:48:36.346Z,84.81
2018-09-04T00:49:36.382Z,84.81
2018-09-04T00:50:36.407Z,84.62
2018-09-04T00:51:36.443Z,84.62
2018-09-04T00:52:36.471Z,84.72
2018-09-04T00:53:36.500Z,84.72
2018-09-04T00:54:36.534Z,84.81
2018-09-04T00:55:36.564Z,85.00
2018-09-04T00:56:36.596Z,85.00
2018-09-04T00:57:36.629Z,85.10
2018-09-04T00:58:36.658Z,85.10
2018-09-04T00:59:36.690Z,84.53
2018-09-04T01:00:36.724Z,84.72
2018-09-04T01:01:36.751Z,84.53
2018-09-04T01:02:36.783Z,84.81
2018-09-04T01:03:36.818Z,84.72
2018-09-04T01:04:36.847Z,84.81
2018-09-04T01:05:36.875Z,84.81
2018-09-04T01:06:36.908Z,84.81
2018-09-04T01:07:36.934Z,84.81
2018-09-04T01:08:36.970Z,85.00
2018-09-04T01:09:36.999Z,85.00
2018-09-04T01:10:37.030Z,84.62
2018-09-04T01:11:37.059Z,84.72
2018-09-04T01:12:37.093Z,85.10
2018-09-04T01:13:37.122Z,84.81
2018-09-04T01:14:37.154Z,84.81
2018-09-04T01:15:37.186Z,84.72
2018-09-04T01:16:37.218Z,85.00
2018-09-04T01:17:37.250Z,84.81
2018-09-04T01:18:37.276Z,84.91
2018-09-04T01:19:37.315Z,84.91
2018-09-04T01:20:37.347Z,84.62
2018-09-04T01:21:37.376Z,84.67
2018-09-04T01:22:37.405Z,84.77
2018-09-04T01:23:37.433Z,85.64
2018-09-04T01:24:37.465Z,85.44
2018-09-04T01:25:37.493Z,85.16
2018-09-04T01:26:37.525Z,85.16
2018-09-04T01:27:37.551Z,84.87
2018-09-04T01:28:37.586Z,85.35
2018-09-04T01:29:37.618Z,84.97
2018-09-04T01:30:37.650Z,85.44
2018-09-04T01:31:37.681Z,85.44
2018-09-04T01:32:37.709Z,85.35
2018-09-04T01:33:37.741Z,85.35
2018-09-04T01:34:37.774Z,85.83
2018-09-04T01:35:37.799Z,85.25
2018-09-04T01:36:37.834Z,85.44
2018-09-04T01:37:37.863Z,85.74
2018-09-04T01:38:37.898Z,85.83
2018-09-04T01:39:37.925Z,85.93
2018-09-04T01:40:37.959Z,85.64
2018-09-04T01:41:37.988Z,85.83
2018-09-04T01:42:38.017Z,86.02
2018-09-04T01:43:38.049Z,86.12
2018-09-04T01:44:38.078Z,85.93
2018-09-04T01:45:38.118Z,85.93
2018-09-04T01:46:38.145Z,85.83
2018-09-04T01:47:38.174Z,86.41
2018-09-04T01:48:38.205Z,86.22
2018-09-04T01:49:38.227Z,86.02
2018-09-04T01:50:38.263Z,86.51
2018-09-04T01:51:38.297Z,86.41
2018-09-04T01:52:38.323Z,86.51
2018-09-04T01:53:38.358Z,86.41
2018-09-04T01:54:38.387Z,86.94
2018-09-04T01:55:38.422Z,86.94
2018-09-04T01:56:38.457Z,86.89
2018-09-04T01:57:38.481Z,86.56
2018-09-04T01:58:38.510Z,86.85
2018-09-04T01:59:38.542Z,87.08
2018-09-04T02:00:38.584Z,86.79
2018-09-04T02:01:38.602Z,86.75
2018-09-04T02:02:38.632Z,86.36
2018-09-04T02:03:38.680Z,86.75
2018-09-04T02:04:38.696Z,86.85
2018-09-04T02:05:38.731Z,86.94
2018-09-04T02:06:38.753Z,86.85
2018-09-04T02:07:38.789Z,86.85
2018-09-04T02:08:38.818Z,86.75
2018-09-04T02:09:38.850Z,86.46
2018-09-04T02:10:38.875Z,86.56
2018-09-04T02:11:38.910Z,86.94
2018-09-04T02:12:38.943Z,86.85
2018-09-04T02:13:38.976Z,86.56
2018-09-04T02:14:39.003Z,86.65
2018-09-04T02:15:39.036Z,86.85
2018-09-04T02:16:39.062Z,86.85
2018-09-04T02:17:39.101Z,86.94
2018-09-04T02:18:39.123Z,86.94
2018-09-04T02:19:39.149Z,86.65
2018-09-04T02:20:39.187Z,86.65
2018-09-04T02:21:39.215Z,86.65
2018-09-04T02:22:39.246Z,86.65
2018-09-04T02:23:39.279Z,86.85
2018-09-04T02:24:39.309Z,86.75
2018-09-04T02:25:39.338Z,86.65
2018-09-04T02:26:39.373Z,86.42
2018-09-04T02:27:39.396Z,86.46
2018-09-04T02:28:39.433Z,86.56
2018-09-04T02:29:39.460Z,86.52
2018-09-04T02:30:39.497Z,86.71
2018-09-04T02:31:39.519Z,87.09
2018-09-04T02:32:39.551Z,87.38
2018-09-04T02:33:39.583Z,87.19
2018-09-04T02:34:39.612Z,87.19
2018-09-04T02:35:39.644Z,87.19
2018-09-04T02:36:39.677Z,87.19
2018-09-04T02:37:39.700Z,87.19
2018-09-04T02:38:39.741Z,87.09
2018-09-04T02:39:39.764Z,87.19
2018-09-04T02:40:39.796Z,86.80
2018-09-04T02:41:39.815Z,87.29
2018-09-04T02:42:39.856Z,87.09
2018-09-04T02:43:39.881Z,87.09
2018-09-04T02:44:39.920Z,86.80
2018-09-04T02:45:39.945Z,87.29
2018-09-04T02:46:39.980Z,87.19
2018-09-04T02:47:40.009Z,87.29
2018-09-04T02:48:40.034Z,87.19
2018-09-04T02:49:40.064Z,86.90
2018-09-04T02:50:40.101Z,86.99
2018-09-04T02:51:40.129Z,86.99
2018-09-04T02:52:40.163Z,87.19
2018-09-04T02:53:40.190Z,87.29
2018-09-04T02:54:40.219Z,86.80
2018-09-04T02:55:40.248Z,87.72
2018-09-04T02:56:40.283Z,87.76
2018-09-04T02:57:40.307Z,87.72
2018-09-04T02:58:40.342Z,87.67
2018-09-04T02:59:40.374Z,87.53
2018-09-04T03:00:40.398Z,87.53
2018-09-04T03:01:40.426Z,87.53
2018-09-04T03:02:40.463Z,87.43
2018-09-04T03:03:40.498Z,87.43
2018-09-04T03:04:40.526Z,87.62
2018-09-04T03:05:40.558Z,87.82
2018-09-04T03:06:40.583Z,88.01
2018-09-04T03:07:40.609Z,87.53
2018-09-04T03:08:40.644Z,87.43
2018-09-04T03:09:40.669Z,87.92
2018-09-04T03:10:40.701Z,87.82
2018-09-04T03:11:40.727Z,88.01
2018-09-04T03:12:40.762Z,87.82
2018-09-04T03:13:40.797Z,87.72
2018-09-04T03:14:40.826Z,87.92
2018-09-04T03:15:40.861Z,87.82
2018-09-04T03:16:40.882Z,87.53
2018-09-04T03:17:40.914Z,87.53
2018-09-04T03:18:40.942Z,87.53
2018-09-04T03:19:40.974Z,88.10
2018-09-04T03:20:41.003Z,88.20
2018-09-04T03:21:41.037Z,88.10
2018-09-04T03:22:41.068Z,88.30
2018-09-04T03:23:41.099Z,88.30
2018-09-04T03:24:41.122Z,88.10
2018-09-04T03:25:41.154Z,88.20
2018-09-04T03:26:41.186Z,88.20
2018-09-04T03:27:41.211Z,88.10
2018-09-04T03:28:41.246Z,88.20
2018-09-04T03:29:41.271Z,87.72
2018-09-04T03:30:41.317Z,88.30
2018-09-04T03:31:41.337Z,88.20
2018-09-04T03:32:41.363Z,88.30
2018-09-04T03:33:41.400Z,88.10
2018-09-04T03:34:41.423Z,87.87
2018-09-04T03:35:41.453Z,88.49
2018-09-04T03:36:41.485Z,88.49
2018-09-04T03:37:41.600Z,88.54
2018-09-04T03:38:41.546Z,88.64
2018-09-04T03:39:41.579Z,88.25
2018-09-04T03:40:41.606Z,88.16
2018-09-04T03:41:41.632Z,87.96
2018-09-04T03:42:41.664Z,88.35
2018-09-04T03:43:41.693Z,88.35
2018-09-04T03:44:41.719Z,88.83
2018-09-04T03:45:41.750Z,88.54
2018-09-04T03:46:41.783Z,88.64
2018-09-04T03:47:41.818Z,88.64
2018-09-04T03:48:41.844Z,88.54
2018-09-04T03:49:41.872Z,88.64
2018-09-04T03:50:41.900Z,88.64
2018-09-04T03:51:41.939Z,88.64
2018-09-04T03:52:41.963Z,88.54
2018-09-04T03:53:41.986Z,88.45
2018-09-04T03:54:42.022Z,88.83
2018-09-04T03:55:42.047Z,88.83
2018-09-04T03:56:42.080Z,88.64
2018-09-04T03:57:42.111Z,88.73
2018-09-04T03:58:42.147Z,88.83
2018-09-04T03:59:42.170Z,88.93
2018-09-04T04:00:42.205Z,89.22
2018-09-04T04:01:42.228Z,89.22
2018-09-04T04:02:42.269Z,89.60
2018-09-04T04:03:42.284Z,89.02
2018-09-04T04:04:42.319Z,89.69
2018-09-04T04:05:42.352Z,89.50
2018-09-04T04:06:42.379Z,89.40
2018-09-04T04:07:42.409Z,89.54
2018-09-04T04:08:42.440Z,89.26
2018-09-04T04:09:42.464Z,89.54
2018-09-04T04:10:42.497Z,89.45
2018-09-04T04:11:42.536Z,89.45
2018-09-04T04:12:42.558Z,89.45
2018-09-04T04:13:42.575Z,89.36
2018-09-04T04:14:42.613Z,89.45
2018-09-04T04:15:42.645Z,89.45
2018-09-04T04:16:42.676Z,89.74
2018-09-04T04:17:42.705Z,89.45
2018-09-04T04:18:42.737Z,89.54
2018-09-04T04:19:42.766Z,89.64
2018-09-04T04:20:42.801Z,89.54
2018-09-04T04:21:42.827Z,89.64
2018-09-04T04:22:42.852Z,88.97
2018-09-04T04:23:42.895Z,89.07
2018-09-04T04:24:42.919Z,88.87
2018-09-04T04:25:42.941Z,89.16
2018-09-04T04:26:42.971Z,89.54
2018-09-04T04:27:43.003Z,89.45
2018-09-04T04:28:43.031Z,89.16
2018-09-04T04:29:43.075Z,88.87
2018-09-04T04:30:43.101Z,89.16
2018-09-04T04:31:43.120Z,89.26
2018-09-04T04:32:43.152Z,89.16
2018-09-04T04:33:43.184Z,89.16
2018-09-04T04:34:43.213Z,89.45
2018-09-04T04:35:43.242Z,89.16
2018-09-04T04:36:43.274Z,89.45
2018-09-04T04:37:43.304Z,89.64
2018-09-04T04:38:43.336Z,89.16
2018-09-04T04:39:43.365Z,89.54
2018-09-04T04:40:43.391Z,89.54
2018-09-04T04:41:43.423Z,88.97
2018-09-04T04:42:43.452Z,88.97
2018-09-04T04:43:43.488Z,89.54
2018-09-04T04:44:43.515Z,89.54
2018-09-04T04:45:43.541Z,89.54
2018-09-04T04:46:43.571Z,89.54
2018-09-04T04:47:43.679Z,89.45
2018-09-04T04:48:43.631Z,89.45
2018-09-04T04:49:43.661Z,89.54
2018-09-04T04:50:43.689Z,89.26
2018-09-04T04:51:43.721Z,89.45
2018-09-04T04:52:43.755Z,89.45
2018-09-04T04:53:43.782Z,89.26
2018-09-04T04:54:43.811Z,89.22
2018-09-04T04:55:43.840Z,89.40
2018-09-04T04:56:43.875Z,89.69
2018-09-04T04:57:43.901Z,89.74
2018-09-04T04:58:43.933Z,89.64
2018-09-04T04:59:43.958Z,89.40
2018-09-04T05:00:43.997Z,89.64
2018-09-04T05:01:44.020Z,89.54
2018-09-04T05:02:44.051Z,89.54
2018-09-04T05:03:44.077Z,89.54
2018-09-04T05:04:44.109Z,89.40
2018-09-04T05:05:44.141Z,89.36
2018-09-04T05:06:44.171Z,89.83
2018-09-04T05:07:44.210Z,89.50
2018-09-04T05:08:44.231Z,90.12
2018-09-04T05:09:44.260Z,90.03
2018-09-04T05:10:44.294Z,90.03
2018-09-04T05:11:44.324Z,90.31
2018-09-04T05:12:44.345Z,90.03
2018-09-04T05:13:44.377Z,90.03
2018-09-04T05:14:44.415Z,90.22
2018-09-04T05:15:44.438Z,89.89
2018-09-04T05:16:44.466Z,90.51
2018-09-04T05:17:44.500Z,90.60
2018-09-04T05:18:44.525Z,90.22
2018-09-04T05:19:44.553Z,90.51
2018-09-04T05:20:44.583Z,90.03
2018-09-04T05:21:44.615Z,90.41
2018-09-04T05:22:44.678Z,90.41
2018-09-04T05:23:44.676Z,90.80
2018-09-04T05:24:44.703Z,90.41
2018-09-04T05:25:44.729Z,90.89
2018-09-04T05:26:44.764Z,90.51
2018-09-04T05:27:44.799Z,90.51
2018-09-04T05:28:44.828Z,90.60
2018-09-04T05:29:44.854Z,90.80
2018-09-04T05:30:44.876Z,90.80
2018-09-04T05:31:44.910Z,90.80
2018-09-04T05:32:44.942Z,90.41
2018-09-04T05:33:44.980Z,90.41
2018-09-04T05:34:44.999Z,90.60
2018-09-04T05:35:45.037Z,90.60
2018-09-04T05:36:45.148Z,90.70
2018-09-04T05:37:45.096Z,90.89
2018-09-04T05:38:45.119Z,90.80
2018-09-04T05:39:45.150Z,90.51
2018-09-04T05:40:45.227Z,90.70
2018-09-04T05:41:45.215Z,90.60
2018-09-04T05:42:45.245Z,90.60
2018-09-04T05:43:45.281Z,90.65
2018-09-04T05:44:45.300Z,90.60
2018-09-04T05:45:45.338Z,90.60
2018-09-04T05:46:45.368Z,90.65
2018-09-04T05:47:45.390Z,90.84
2018-09-04T05:48:45.412Z,90.55
2018-09-04T05:49:45.447Z,90.41
2018-09-04T05:50:45.478Z,90.45
2018-09-04T05:51:45.511Z,90.45
2018-09-04T05:52:45.544Z,90.65
2018-09-04T05:53:45.578Z,90.65
2018-09-04T05:54:45.607Z,90.55
2018-09-04T05:55:45.632Z,90.84
2018-09-04T05:56:45.664Z,90.07
2018-09-04T05:57:45.691Z,90.45
2018-09-04T05:58:45.720Z,90.65
2018-09-04T05:59:45.762Z,89.69
2018-09-04T06:00:45.780Z,89.59
2018-09-04T06:01:45.810Z,89.78
2018-09-04T06:02:45.842Z,89.30
2018-09-04T06:03:45.874Z,88.96
2018-09-04T06:04:45.903Z,88.73
2018-09-04T06:05:45.941Z,88.29
2018-09-04T06:06:45.960Z,88.57
2018-09-04T06:07:45.993Z,88.19
2018-09-04T06:08:46.024Z,88.48
2018-09-04T06:09:46.053Z,87.71
2018-09-04T06:10:46.082Z,87.81
2018-09-04T06:11:46.109Z,87.81
2018-09-04T06:12:46.147Z,88.10
2018-09-04T06:13:46.258Z,87.62
2018-09-04T06:14:46.208Z,87.42
2018-09-04T06:15:46.237Z,87.33
2018-09-04T06:16:46.268Z,87.33
2018-09-04T06:17:46.294Z,87.56
2018-09-04T06:18:46.323Z,87.71
2018-09-04T06:19:46.355Z,87.81
2018-09-04T06:20:46.397Z,87.33
2018-09-04T06:21:46.416Z,87.13
2018-09-04T06:22:46.445Z,87.13
2018-09-04T06:23:46.471Z,87.23
2018-09-04T06:24:46.513Z,87.18
2018-09-04T06:25:46.542Z,87.27
2018-09-04T06:26:46.574Z,87.37
2018-09-04T06:27:46.599Z,87.27
2018-09-04T06:28:46.631Z,87.27
2018-09-04T06:29:46.664Z,86.79
2018-09-04T06:30:46.701Z,86.89
2018-09-04T06:31:46.723Z,86.89
2018-09-04T06:32:46.752Z,86.60
2018-09-04T06:33:46.784Z,86.41
2018-09-04T06:34:46.820Z,86.41
2018-09-04T06:35:46.842Z,86.60
2018-09-04T06:36:46.935Z,86.69
2018-09-04T06:37:46.904Z,85.93
2018-09-04T06:38:46.936Z,86.60
2018-09-04T06:39:46.964Z,86.12
2018-09-04T06:40:46.999Z,85.54
2018-09-04T06:41:47.029Z,86.31
2018-09-04T06:42:47.067Z,85.44
2018-09-04T06:43:47.095Z,85.78
2018-09-04T06:44:47.117Z,85.39
2018-09-04T06:45:47.152Z,85.20
2018-09-04T06:46:47.182Z,85.35
2018-09-04T06:47:47.223Z,85.25
2018-09-04T06:48:47.254Z,85.39
2018-09-04T06:49:47.282Z,85.49
2018-09-04T06:50:47.311Z,85.39
2018-09-04T06:51:47.337Z,85.49
2018-09-04T06:52:47.365Z,85.39
2018-09-04T06:53:47.398Z,85.30
2018-09-04T06:54:47.441Z,85.10
2018-09-04T06:55:47.461Z,85.39
2018-09-04T06:56:47.490Z,85.20
2018-09-04T06:57:47.525Z,85.20
2018-09-04T06:58:47.554Z,84.91
2018-09-04T06:59:47.586Z,85.58
2018-09-04T07:00:47.611Z,85.10
2018-09-04T07:01:47.640Z,84.81
2018-09-04T07:02:47.676Z,84.62
2018-09-04T07:03:47.704Z,84.66
2018-09-04T07:04:47.740Z,84.56
2018-09-04T07:05:47.765Z,84.76
2018-09-04T07:06:47.800Z,84.28
2018-09-04T07:07:47.835Z,84.09
2018-09-04T07:08:47.867Z,83.89
2018-09-04T07:09:47.888Z,83.51
2018-09-04T07:10:47.917Z,83.89
2018-09-04T07:11:47.953Z,83.70
2018-09-04T07:12:47.985Z,83.70
2018-09-04T07:13:48.022Z,83.61
2018-09-04T07:14:48.052Z,83.41
2018-09-04T07:15:48.078Z,83.22
2018-09-04T07:16:48.121Z,82.93
2018-09-04T07:17:48.144Z,83.12
2018-09-04T07:18:48.175Z,82.68
2018-09-04T07:19:48.207Z,82.29
2018-09-04T07:20:48.228Z,81.81
2018-09-04T07:21:48.273Z,81.24
2018-09-04T07:22:48.297Z,81.24
2018-09-04T07:23:48.341Z,81.24
2018-09-04T07:24:48.361Z,80.79
2018-09-04T07:25:48.393Z,80.41
2018-09-04T07:26:48.422Z,79.93
2018-09-04T07:27:48.462Z,79.64
2018-09-04T07:28:48.493Z,78.91
2018-09-04T07:29:48.515Z,78.91
2018-09-04T07:30:48.551Z,78.56
2018-09-04T07:31:48.582Z,77.50
2018-09-04T07:32:48.616Z,77.63
2018-09-04T07:33:48.643Z,77.15
2018-09-04T07:34:48.678Z,76.18
2018-09-04T07:35:48.715Z,75.64
2018-09-04T07:36:48.740Z,75.45
2018-09-04T07:37:48.775Z,74.81
2018-09-04T07:38:48.808Z,74.13
2018-09-04T07:39:48.836Z,73.36
2018-09-04T07:40:48.868Z,72.42
2018-09-04T07:41:48.958Z,72.24
2018-09-04T07:42:48.943Z,72.52
2018-09-04T07:43:48.971Z,71.98
2018-09-04T07:44:49.003Z,71.11
2018-09-04T07:45:49.035Z,71.11
2018-09-04T07:46:49.067Z,70.14
2018-09-04T07:47:49.103Z,70.34
2018-09-04T07:48:49.132Z,69.79
2018-09-04T07:49:49.168Z,69.40
2018-09-04T07:50:49.203Z,68.56
2018-09-04T07:51:49.235Z,67.60
2018-09-04T07:52:49.273Z,67.30
2018-09-04T07:53:49.411Z,67.05
2018-09-04T07:54:49.339Z,65.89
2018-09-04T07:55:49.382Z,65.43
2018-09-04T07:56:49.407Z,65.72
2018-09-04T07:57:49.438Z,65.34
2018-09-04T07:58:49.473Z,65.24
2018-09-04T07:59:49.505Z,65.05
2018-09-04T08:00:49.546Z,64.30
2018-09-04T08:01:49.565Z,64.20
2018-09-04T08:02:49.608Z,64.11
2018-09-04T08:03:49.645Z,63.07
2018-09-04T08:04:49.682Z,62.78
2018-09-04T08:05:49.721Z,62.29
2018-09-04T08:06:49.746Z,62.32
2018-09-04T08:07:49.785Z,61.35
2018-09-04T08:08:49.819Z,61.35
2018-09-04T08:09:49.851Z,61.45
2018-09-04T08:10:49.886Z,60.77
2018-09-04T08:11:49.922Z,60.41
2018-09-04T08:12:49.957Z,60.12
2018-09-04T08:13:49.993Z,59.92
2018-09-04T08:14:50.032Z,60.12
2018-09-04T08:15:50.063Z,59.25
2018-09-04T08:16:50.111Z,59.54
2018-09-04T08:17:50.164Z,59.64
2018-09-04T08:18:50.176Z,59.47
2018-09-04T08:19:50.210Z,59.76
2018-09-04T08:20:50.333Z,59.38
2018-09-04T08:21:50.290Z,59.18
2018-09-04T08:22:50.315Z,58.59
2018-09-04T08:23:50.350Z,58.23
2018-09-04T08:24:50.388Z,58.43
2018-09-04T08:25:50.423Z,57.95
2018-09-04T08:26:50.476Z,57.85
2018-09-04T08:27:50.493Z,57.36
2018-09-04T08:28:50.533Z,57.26
2018-09-04T08:29:50.566Z,56.90
2018-09-04T08:30:50.601Z,57.00
2018-09-04T08:31:50.643Z,55.93
2018-09-04T08:32:50.689Z,56.32
2018-09-04T08:33:50.710Z,56.03
2018-09-04T08:34:50.752Z,55.93
2018-09-04T08:35:50.787Z,55.64
2018-09-04T08:36:50.826Z,55.37
2018-09-04T08:37:50.857Z,54.79
2018-09-04T08:38:50.893Z,54.43
2018-09-04T08:39:50.960Z,53.94
2018-09-04T08:40:50.970Z,54.03
2018-09-04T08:41:51.008Z,54.03
2018-09-04T08:42:51.049Z,53.38
2018-09-04T08:43:51.083Z,53.09
2018-09-04T08:44:51.121Z,53.09
2018-09-04T08:45:51.159Z,52.92
2018-09-04T08:46:51.194Z,52.83
2018-09-04T08:47:51.323Z,52.24
2018-09-04T08:48:51.265Z,52.04
2018-09-04T08:49:51.309Z,52.04
2018-09-04T08:50:51.340Z,51.78
2018-09-04T08:51:51.387Z,51.48
2018-09-04T08:52:51.416Z,50.90
2018-09-04T08:53:51.457Z,50.99
2018-09-04T08:54:51.489Z,51.09
2018-09-04T08:55:51.546Z,50.73
2018-09-04T08:56:51.575Z,50.63
2018-09-04T08:57:51.607Z,49.85
2018-09-04T08:58:51.642Z,49.56
2018-09-04T08:59:51.680Z,49.10
2018-09-04T09:00:51.720Z,48.80
2018-09-04T09:01:51.762Z,49.10
2018-09-04T09:02:51.803Z,48.02
2018-09-04T09:03:51.891Z,48.02
2018-09-04T09:04:51.868Z,47.95
2018-09-04T09:05:51.912Z,48.14
2018-09-04T09:06:51.957Z,47.75
2018-09-04T09:07:51.995Z,48.05
2018-09-04T09:08:52.027Z,47.46
2018-09-04T09:09:52.077Z,46.97
2018-09-04T09:10:52.109Z,46.41
2018-09-04T09:11:52.144Z,46.31
2018-09-04T09:12:52.185Z,46.50
2018-09-04T09:13:52.224Z,46.70
2018-09-04T09:14:52.268Z,46.33
2018-09-04T09:15:52.300Z,45.84
2018-09-04T09:16:52.465Z,45.16
2018-09-04T09:17:52.373Z,43.99
2018-09-04T09:18:52.415Z,43.91
2018-09-04T09:19:52.454Z,43.23
2018-09-04T09:20:52.495Z,42.64
2018-09-04T09:21:52.530Z,42.54
2018-09-04T09:22:52.624Z,42.74
2018-09-04T09:23:52.614Z,42.44
2018-09-04T09:24:52.652Z,42.56
2018-09-04T09:25:52.690Z,42.46
2018-09-04T09:26:52.731Z,42.46
2018-09-04T09:27:52.768Z,42.56
2018-09-04T09:28:52.796Z,42.66
2018-09-04T09:29:52.847Z,42.56
2018-09-04T09:30:52.883Z,42.78
2018-09-04T09:31:52.926Z,42.48
2018-09-04T09:32:52.963Z,42.48
2018-09-04T09:33:52.996Z,42.29
2018-09-04T09:34:53.044Z,41.72
2018-09-04T09:35:53.085Z,41.42
2018-09-04T09:36:53.196Z,41.52
2018-09-04T09:37:53.152Z,41.13
2018-09-04T09:38:53.200Z,40.64
2018-09-04T09:39:53.239Z,40.64
2018-09-04T09:40:53.307Z,41.03
2018-09-04T09:41:53.322Z,41.25
2018-09-04T09:42:53.360Z,41.45
2018-09-04T09:43:53.402Z,40.66
2018-09-04T09:44:53.441Z,40.56
2018-09-04T09:45:53.493Z,39.88
2018-09-04T09:46:53.522Z,39.98
2018-09-04T09:47:53.561Z,39.88
2018-09-04T09:48:53.602Z,40.17
2018-09-04T09:49:53.640Z,39.69
2018-09-04T09:50:53.679Z,39.39
2018-09-04T09:51:53.721Z,39.19
2018-09-04T09:52:53.826Z,39.19
2018-09-04T09:53:53.809Z,39.49
2018-09-04T09:54:53.839Z,39.00
2018-09-04T09:55:53.879Z,38.90
2018-09-04T09:56:53.928Z,39.00
2018-09-04T09:57:53.959Z,39.49
2018-09-04T09:58:54.047Z,39.19
2018-09-04T09:59:54.097Z,39.09
2018-09-04T10:00:54.151Z,38.60
2018-09-04T10:01:54.124Z,38.70
2018-09-04T10:02:54.162Z,38.80
2018-09-04T10:03:54.284Z,38.60
2018-09-04T10:04:54.243Z,38.90
2018-09-04T10:05:54.306Z,38.72
2018-09-04T10:06:54.325Z,38.51
2018-09-04T10:07:54.479Z,38.62
2018-09-04T10:08:54.414Z,38.23
2018-09-04T10:09:54.495Z,37.94
2018-09-04T10:10:54.487Z,37.94
2018-09-04T10:11:54.531Z,37.76
2018-09-04T10:12:54.570Z,37.76
2018-09-04T10:13:54.612Z,37.66
2018-09-04T10:14:54.650Z,37.07
2018-09-04T10:15:54.689Z,36.58
2018-09-04T10:16:54.732Z,36.29
2018-09-04T10:17:54.774Z,36.39
2018-09-04T10:18:54.813Z,36.68
2018-09-04T10:19:54.892Z,37.07
2018-09-04T10:20:54.898Z,36.80
2018-09-04T10:21:54.930Z,36.40
2018-09-04T10:22:54.975Z,36.30
2018-09-04T10:23:55.020Z,36.01
2018-09-04T10:24:55.057Z,35.82
2018-09-04T10:25:55.116Z,36.30
2018-09-04T10:26:55.138Z,35.44
2018-09-04T10:27:55.179Z,35.34
2018-09-04T10:28:55.221Z,35.05
2018-09-04T10:29:55.263Z,35.14
2018-09-04T10:30:55.315Z,35.05
2018-09-04T10:31:55.344Z,34.95
2018-09-04T10:32:55.386Z,34.95
2018-09-04T10:33:55.424Z,35.24
2018-09-04T10:34:55.464Z,35.05
2018-09-04T10:35:55.511Z,35.05
2018-09-04T10:36:55.549Z,35.14
2018-09-04T10:37:55.588Z,35.05
2018-09-04T10:38:55.632Z,35.34
2018-09-04T10:39:55.672Z,36.03
2018-09-04T10:40:55.713Z,35.93
2018-09-04T10:41:55.757Z,35.83
2018-09-04T10:42:55.795Z,35.93
2018-09-04T10:43:55.838Z,35.83
2018-09-04T10:44:55.879Z,36.01
2018-09-04T10:45:55.915Z,36.39
2018-09-04T10:46:55.956Z,36.57
2018-09-04T10:47:56.001Z,36.47
2018-09-04T10:48:56.046Z,36.84
2018-09-04T10:49:56.082Z,37.12
2018-09-04T10:50:56.127Z,38.00
2018-09-04T10:51:56.162Z,38.86
2018-09-04T10:52:56.210Z,39.06
2018-09-04T10:53:56.246Z,39.04
2018-09-04T10:54:56.283Z,38.94
2018-09-04T10:55:56.324Z,38.55
2018-09-04T10:56:56.366Z,37.87
2018-09-04T10:57:56.404Z,37.39
2018-09-04T10:58:56.443Z,37.19
2018-09-04T10:59:56.479Z,37.29
2018-09-04T11:00:56.529Z,38.16
2018-09-04T11:01:56.566Z,39.31
2018-09-04T11:02:56.604Z,39.90
2018-09-04T11:03:56.649Z,40.27
2018-09-04T11:04:56.683Z,41.15
2018-09-04T11:05:56.725Z,41.33
2018-09-04T11:06:56.760Z,41.27
2018-09-04T11:07:56.811Z,40.97
2018-09-04T11:08:56.872Z,41.74
2018-09-04T11:09:57.046Z,42.42
2018-09-04T11:10:56.923Z,42.50
2018-09-04T11:11:56.970Z,42.50
2018-09-04T11:12:57.002Z,42.50
2018-09-04T11:13:57.036Z,42.50
2018-09-04T11:14:57.079Z,42.52
2018-09-04T11:15:57.117Z,42.50
2018-09-04T11:16:57.160Z,42.69
2018-09-04T11:17:57.197Z,42.68
2018-09-04T11:18:57.243Z,42.22
2018-09-04T11:19:57.274Z,41.56
2018-09-04T11:20:57.309Z,41.29
2018-09-04T11:21:57.350Z,39.62
2018-09-04T11:22:57.388Z,39.37
2018-09-04T11:23:57.430Z,38.29
2018-09-04T11:24:57.465Z,38.20
2018-09-04T11:25:57.510Z,38.02
2018-09-04T11:26:57.562Z,38.10
2018-09-04T11:27:57.590Z,38.57
2018-09-04T11:28:57.625Z,38.94
2018-09-04T11:29:57.665Z,39.06
2018-09-04T11:30:57.703Z,38.78
2018-09-04T11:31:57.745Z,38.12
2018-09-04T11:32:57.780Z,37.35
2018-09-04T11:33:57.812Z,36.98
2018-09-04T11:34:57.857Z,36.58
2018-09-04T11:35:57.899Z,35.52
2018-09-04T11:36:57.937Z,35.83
2018-09-04T11:37:57.978Z,35.06
2018-09-04T11:38:58.018Z,34.69
2018-09-04T11:39:58.053Z,34.20
2018-09-04T11:40:58.101Z,33.80
2018-09-04T11:41:58.132Z,33.53
2018-09-04T11:42:58.178Z,33.70
2018-09-04T11:43:58.216Z,33.72
2018-09-04T11:44:58.257Z,33.62
2018-09-04T11:45:58.297Z,33.25
2018-09-04T11:46:58.530Z,32.26
2018-09-04T11:47:58.379Z,31.88
2018-09-04T11:48:58.419Z,31.69
2018-09-04T11:49:58.457Z,31.90
2018-09-04T11:50:58.493Z,31.51
2018-09-04T11:51:58.538Z,31.21
2018-09-04T11:52:58.576Z,32.17
2018-09-04T11:53:58.618Z,32.93
2018-09-04T11:54:58.654Z,32.36
2018-09-04T11:55:58.693Z,32.93
2018-09-04T11:56:58.731Z,33.41
2018-09-04T11:57:58.779Z,33.79
2018-09-04T11:58:58.821Z,34.36
2018-09-04T11:59:58.856Z,34.95
2018-09-04T12:00:58.909Z,35.23
2018-09-04T12:01:58.989Z,35.60
2018-09-04T12:02:58.981Z,36.18
2018-09-04T12:03:59.029Z,36.57
2018-09-04T12:04:59.065Z,36.76
2018-09-04T12:05:59.110Z,37.43
2018-09-04T12:06:59.144Z,37.73
2018-09-04T12:07:59.180Z,37.82
2018-09-04T12:08:59.225Z,38.51
2018-09-04T12:09:59.265Z,38.98
2018-09-04T12:10:59.303Z,38.98
2018-09-04T12:11:59.354Z,38.21
2018-09-04T12:12:59.510Z,38.21
2018-09-04T12:13:59.424Z,38.39
2018-09-04T12:14:59.470Z,38.96
2018-09-04T12:15:59.505Z,39.15
2018-09-04T12:16:59.546Z,39.14
2018-09-04T12:17:59.588Z,39.33
2018-09-04T12:18:59.623Z,39.23
2018-09-04T12:19:59.674Z,39.33
2018-09-04T12:20:59.779Z,38.84
2018-09-04T12:21:59.745Z,38.65
2018-09-04T12:22:59.783Z,39.06
2018-09-04T12:23:59.827Z,39.25
2018-09-04T12:24:59.863Z,38.47
2018-09-04T12:25:59.905Z,38.10
2018-09-04T12:26:59.983Z,38.29
2018-09-04T12:27:59.978Z,38.00
2018-09-04T12:29:00.020Z,37.81
2018-09-04T12:30:00.056Z,37.90
2018-09-04T12:31:00.101Z,37.81
2018-09-04T12:32:00.133Z,37.92
2018-09-04T12:33:00.174Z,38.20
2018-09-04T12:34:00.311Z,38.37
2018-09-04T12:35:00.257Z,38.39
2018-09-04T12:36:00.294Z,38.49
2018-09-04T12:37:00.337Z,39.06
2018-09-04T12:38:00.370Z,39.27
2018-09-04T12:39:00.408Z,39.07
2018-09-04T12:40:00.448Z,38.59
2018-09-04T12:41:00.488Z,38.29
2018-09-04T12:42:00.520Z,38.49
2018-09-04T12:43:00.562Z,38.39
2018-09-04T12:44:00.600Z,38.39
2018-09-04T12:45:00.644Z,37.61
2018-09-04T12:46:00.678Z,37.12
2018-09-04T12:47:00.716Z,37.31
2018-09-04T12:48:00.797Z,37.51
2018-09-04T12:49:00.806Z,37.41
2018-09-04T12:50:00.835Z,37.31
2018-09-04T12:51:00.881Z,37.21
2018-09-04T12:52:00.913Z,36.90
2018-09-04T12:53:00.960Z,37.12